createdAt,value
2017-12-22T00:01:40.064Z,94.80
2017-12-22T00:04:08.105Z,94.80
2017-12-22T00:06:36.866Z,94.90
2017-12-22T00:09:04.849Z,94.80
2017-12-22T00:11:33.052Z,94.60
2017-12-22T00:14:01.044Z,94.50
2017-12-22T00:16:29.793Z,94.40
2017-12-22T00:18:58.028Z,94.40
2017-12-22T00:21:26.787Z,94.30
2017-12-22T00:23:54.772Z,94.50
2017-12-22T00:26:22.896Z,94.40
2017-12-22T00:28:50.884Z,94.30
2017-12-22T00:31:19.636Z,94.10
2017-12-22T00:33:47.672Z,94.00
2017-12-22T00:36:16.536Z,94.10
2017-12-22T00:38:44.527Z,94.10
2017-12-22T00:41:12.569Z,94.00
2017-12-22T00:43:40.559Z,93.90
2017-12-22T00:46:08.544Z,93.90
2017-12-22T00:48:36.577Z,93.60
2017-12-22T00:51:04.573Z,93.90
2017-12-22T00:53:33.319Z,93.80
2017-12-22T00:56:01.349Z,93.80
2017-12-22T00:58:29.332Z,93.90
2017-12-22T01:00:58.080Z,94.40
2017-12-22T01:03:26.327Z,94.10
2017-12-22T01:05:55.081Z,94.00
2017-12-22T01:08:23.060Z,94.00
2017-12-22T01:10:51.453Z,93.80
2017-12-22T01:13:19.428Z,93.70
2017-12-22T01:15:53.244Z,93.70
2017-12-22T01:18:26.964Z,93.50
2017-12-22T01:20:55.087Z,93.60
2017-12-22T01:23:23.847Z,94.20
2017-12-22T01:25:51.835Z,93.80
2017-12-22T01:28:19.917Z,94.00
2017-12-22T01:30:47.994Z,93.90
2017-12-22T01:33:16.029Z,93.70
2017-12-22T01:35:45.571Z,93.80
2017-12-22T01:38:14.396Z,93.70
2017-12-22T01:40:42.435Z,93.70
2017-12-22T01:43:10.515Z,93.80
2017-12-22T01:45:38.545Z,93.60
2017-12-22T01:48:06.573Z,93.20
2017-12-22T01:50:34.629Z,93.20
2017-12-22T01:53:02.788Z,93.20
2017-12-22T01:55:30.816Z,93.20
2017-12-22T01:57:58.849Z,93.10
2017-12-22T02:00:27.666Z,92.90
2017-12-22T02:02:55.692Z,92.80
2017-12-22T02:05:23.869Z,92.70
2017-12-22T02:07:51.909Z,92.90
2017-12-22T02:10:19.949Z,93.10
2017-12-22T02:12:47.994Z,92.90
2017-12-22T02:15:16.025Z,93.10
2017-12-22T02:17:44.093Z,93.20
2017-12-22T02:20:12.125Z,93.00
2017-12-22T02:22:40.205Z,92.90
2017-12-22T02:25:09.001Z,92.90
2017-12-22T02:27:37.797Z,93.20
2017-12-22T02:30:06.618Z,93.20
2017-12-22T02:32:34.653Z,93.20
2017-12-22T02:35:02.870Z,93.10
2017-12-22T02:37:30.912Z,93.20
2017-12-22T02:39:58.945Z,93.10
2017-12-22T02:42:27.761Z,93.00
2017-12-22T02:44:55.794Z,92.90
2017-12-22T02:47:23.864Z,93.00
2017-12-22T02:49:51.902Z,93.10
2017-12-22T02:52:20.697Z,92.60
2017-12-22T02:54:49.506Z,92.80
2017-12-22T02:57:18.309Z,93.20
2017-12-22T02:59:47.149Z,93.20
2017-12-22T03:02:15.187Z,93.20
2017-12-22T03:04:43.996Z,93.10
2017-12-22T03:07:12.053Z,93.00
2017-12-22T03:09:40.093Z,93.10
2017-12-22T03:12:08.161Z,93.20
2017-12-22T03:14:36.192Z,93.20
2017-12-22T03:17:04.224Z,93.10
2017-12-22T03:19:32.273Z,93.40
2017-12-22T03:22:00.305Z,93.60
2017-12-22T03:24:28.382Z,94.10
2017-12-22T03:26:56.417Z,93.50
2017-12-22T03:29:24.455Z,93.40
2017-12-22T03:31:52.500Z,93.20
2017-12-22T03:34:21.300Z,93.20
2017-12-22T03:36:50.116Z,93.20
2017-12-22T03:39:18.914Z,93.20
2017-12-22T03:41:47.728Z,93.40
2017-12-22T03:44:15.777Z,93.30
2017-12-22T03:46:43.864Z,93.70
2017-12-22T03:49:11.905Z,93.80
2017-12-22T03:51:39.942Z,93.60
2017-12-22T03:54:08.759Z,93.30
2017-12-22T03:56:36.793Z,93.30
2017-12-22T03:59:04.844Z,93.20
2017-12-22T04:01:32.895Z,93.10
2017-12-22T04:04:01.709Z,93.20
2017-12-22T04:06:29.761Z,93.10
2017-12-22T04:08:57.816Z,93.10
2017-12-22T04:11:25.850Z,93.10
2017-12-22T04:13:54.657Z,93.10
2017-12-22T04:16:23.472Z,93.10
2017-12-22T04:18:51.512Z,93.10
2017-12-22T04:21:19.601Z,93.10
2017-12-22T04:23:49.141Z,93.30
2017-12-22T04:26:17.932Z,93.20
2017-12-22T04:28:46.753Z,93.10
2017-12-22T04:31:14.784Z,93.20
2017-12-22T04:33:42.870Z,93.50
2017-12-22T04:36:10.905Z,93.50
2017-12-22T04:38:38.957Z,93.20
2017-12-22T04:41:07.009Z,93.20
2017-12-22T04:43:35.043Z,93.20
2017-12-22T04:46:03.857Z,93.50
2017-12-22T04:48:31.894Z,93.50
2017-12-22T04:50:59.953Z,93.20
2017-12-22T04:53:28.010Z,93.20
2017-12-22T04:55:56.045Z,93.60
2017-12-22T04:58:24.097Z,93.70
2017-12-22T05:00:52.133Z,93.80
2017-12-22T05:03:20.173Z,93.80
2017-12-22T05:05:48.220Z,93.50
2017-12-22T05:08:17.030Z,93.70
2017-12-22T05:10:45.833Z,93.70
2017-12-22T05:13:13.891Z,93.70
2017-12-22T05:15:41.926Z,93.60
2017-12-22T05:18:09.962Z,93.10
2017-12-22T05:20:38.786Z,93.50
2017-12-22T05:23:06.829Z,93.50
2017-12-22T05:25:35.128Z,93.60
2017-12-22T05:28:04.273Z,93.60
2017-12-22T05:30:32.310Z,93.60
2017-12-22T05:33:00.366Z,93.60
2017-12-22T05:35:28.396Z,93.50
2017-12-22T05:37:57.200Z,93.50
2017-12-22T05:40:26.020Z,93.70
2017-12-22T05:42:54.821Z,93.60
2017-12-22T05:45:23.632Z,93.70
2017-12-22T05:47:51.669Z,93.60
2017-12-22T05:50:19.700Z,93.50
2017-12-22T05:52:47.748Z,93.40
2017-12-22T05:55:15.785Z,93.50
2017-12-22T05:57:43.836Z,93.50
2017-12-22T06:00:12.693Z,93.10
2017-12-22T06:02:40.730Z,93.10
2017-12-22T06:05:08.766Z,93.00
2017-12-22T06:07:37.012Z,92.90
2017-12-22T06:10:05.057Z,93.10
2017-12-22T06:12:33.092Z,93.00
2017-12-22T06:15:01.162Z,93.10
2017-12-22T06:17:29.196Z,93.10
2017-12-22T06:19:57.236Z,93.10
2017-12-22T06:22:25.333Z,93.00
2017-12-22T06:24:53.366Z,93.10
2017-12-22T06:27:22.157Z,93.10
2017-12-22T06:29:50.213Z,93.00
2017-12-22T06:32:18.248Z,93.20
2017-12-22T06:34:47.092Z,93.00
2017-12-22T06:37:15.122Z,93.00
2017-12-22T06:39:43.209Z,93.00
2017-12-22T06:42:12.024Z,93.10
2017-12-22T06:44:40.065Z,93.00
2017-12-22T06:47:08.136Z,93.00
2017-12-22T06:49:36.173Z,92.90
2017-12-22T06:52:04.344Z,92.30
2017-12-22T06:54:33.140Z,92.60
2017-12-22T06:57:01.992Z,92.60
2017-12-22T06:59:30.790Z,92.70
2017-12-22T07:01:59.585Z,92.90
2017-12-22T07:04:28.449Z,92.90
2017-12-22T07:06:56.541Z,92.80
2017-12-22T07:09:24.565Z,92.80
2017-12-22T07:11:53.376Z,92.60
2017-12-22T07:14:21.416Z,92.50
2017-12-22T07:16:49.757Z,92.50
2017-12-22T07:19:17.796Z,92.60
2017-12-22T07:21:45.845Z,92.40
2017-12-22T07:24:13.973Z,92.60
2017-12-22T07:26:41.997Z,92.70
2017-12-22T07:29:10.080Z,93.00
2017-12-22T07:31:38.106Z,93.00
2017-12-22T07:34:06.208Z,92.80
2017-12-22T07:36:35.041Z,92.90
2017-12-22T07:39:04.015Z,92.90
2017-12-22T07:41:32.060Z,93.00
2017-12-22T07:44:00.095Z,93.00
2017-12-22T07:46:28.929Z,93.10
2017-12-22T07:48:56.957Z,93.10
2017-12-22T07:51:24.992Z,93.10
2017-12-22T07:53:53.041Z,93.10
2017-12-22T07:56:21.879Z,93.10
2017-12-22T07:58:49.913Z,93.10
2017-12-22T08:01:17.953Z,93.10
2017-12-22T08:03:45.997Z,92.60
2017-12-22T08:06:14.809Z,92.30
2017-12-22T08:08:43.001Z,92.30
2017-12-22T08:11:11.045Z,92.50
2017-12-22T08:13:39.069Z,92.40
2017-12-22T08:16:07.130Z,92.70
2017-12-22T08:18:35.932Z,93.20
2017-12-22T08:21:04.978Z,93.20
2017-12-22T08:23:33.844Z,93.10
2017-12-22T08:26:02.641Z,92.90
2017-12-22T08:28:30.717Z,92.90
2017-12-22T08:30:58.746Z,93.10
2017-12-22T08:33:26.922Z,93.10
2017-12-22T08:35:54.957Z,93.20
2017-12-22T08:38:22.990Z,93.20
2017-12-22T08:40:51.069Z,93.20
2017-12-22T08:43:19.092Z,93.30
2017-12-22T08:45:47.216Z,93.20
2017-12-22T08:48:16.028Z,93.30
2017-12-22T08:50:44.832Z,93.70
2017-12-22T08:53:13.676Z,94.00
2017-12-22T08:55:41.697Z,94.00
2017-12-22T08:58:10.012Z,93.60
2017-12-22T09:00:38.086Z,93.80
2017-12-22T09:03:06.405Z,94.00
2017-12-22T09:05:34.440Z,94.00
2017-12-22T09:08:02.465Z,93.80
2017-12-22T09:10:30.516Z,93.70
2017-12-22T09:12:59.312Z,93.90
2017-12-22T09:15:27.381Z,93.90
2017-12-22T09:17:55.422Z,93.70
2017-12-22T09:20:23.451Z,93.80
2017-12-22T09:22:51.500Z,94.30
2017-12-22T09:25:19.538Z,93.60
2017-12-22T09:27:48.364Z,93.50
2017-12-22T09:30:16.408Z,93.40
2017-12-22T09:32:44.440Z,94.00
2017-12-22T09:35:12.500Z,94.00
2017-12-22T09:37:41.322Z,94.30
2017-12-22T09:40:09.352Z,94.30
2017-12-22T09:42:37.426Z,94.30
2017-12-22T09:45:05.446Z,94.50
2017-12-22T09:47:34.257Z,94.20
2017-12-22T09:50:02.309Z,94.20
2017-12-22T09:52:30.337Z,94.10
2017-12-22T09:54:58.386Z,94.20
2017-12-22T09:57:26.412Z,94.30
2017-12-22T09:59:54.648Z,94.20
2017-12-22T10:02:22.572Z,93.40
2017-12-22T10:04:50.557Z,93.80
2017-12-22T10:07:18.693Z,94.30
2017-12-22T10:09:46.667Z,94.10
2017-12-22T10:12:14.656Z,94.30
2017-12-22T10:14:42.684Z,94.30
2017-12-22T10:17:10.692Z,93.70
2017-12-22T10:19:38.676Z,93.40
2017-12-22T10:22:06.808Z,94.00
2017-12-22T10:24:35.564Z,94.10
2017-12-22T10:27:03.544Z,94.10
2017-12-22T10:29:31.676Z,94.10
2017-12-22T10:32:00.426Z,94.10
2017-12-22T10:34:28.404Z,94.00
2017-12-22T10:36:56.416Z,94.10
2017-12-22T10:39:24.396Z,94.00
2017-12-22T10:41:52.392Z,93.90
2017-12-22T10:44:21.195Z,94.00
2017-12-22T10:46:49.948Z,94.00
2017-12-22T10:49:17.940Z,94.00
2017-12-22T10:51:46.159Z,93.50
2017-12-22T10:54:14.144Z,94.00
2017-12-22T10:56:42.140Z,94.70
2017-12-22T10:59:10.923Z,94.30
2017-12-22T11:01:38.901Z,94.30
2017-12-22T11:04:06.889Z,94.20
2017-12-22T11:06:34.917Z,93.90
2017-12-22T11:09:02.897Z,93.70
2017-12-22T11:11:30.876Z,94.00
2017-12-22T11:13:58.992Z,94.00
2017-12-22T11:16:26.979Z,93.60
2017-12-22T11:18:54.976Z,93.60
2017-12-22T11:21:22.996Z,93.60
2017-12-22T11:23:50.976Z,93.60
2017-12-22T11:26:18.969Z,93.60
2017-12-22T11:28:46.972Z,93.50
2017-12-22T11:31:14.956Z,93.60
2017-12-22T11:33:42.946Z,93.10
2017-12-22T11:36:10.966Z,92.80
2017-12-22T11:38:39.728Z,92.90
2017-12-22T11:41:07.707Z,92.90
2017-12-22T11:43:35.828Z,92.80
2017-12-22T11:46:03.813Z,92.60
2017-12-22T11:48:31.803Z,92.90
2017-12-22T11:51:00.580Z,92.80
2017-12-22T11:53:28.562Z,92.50
2017-12-22T11:55:56.550Z,92.30
2017-12-22T11:58:24.564Z,92.20
2017-12-22T12:00:53.317Z,92.80
2017-12-22T12:03:21.291Z,92.80
2017-12-22T12:05:49.304Z,92.50
2017-12-22T12:08:17.293Z,92.80
2017-12-22T12:10:45.280Z,92.90
2017-12-22T12:13:14.096Z,93.20
2017-12-22T12:15:42.080Z,93.20
2017-12-22T12:18:10.069Z,93.60
2017-12-22T12:20:38.085Z,93.60
2017-12-22T12:23:06.463Z,93.80
2017-12-22T12:25:34.449Z,93.60
2017-12-22T12:28:02.456Z,93.50
2017-12-22T12:30:30.529Z,92.90
2017-12-22T12:32:58.508Z,92.40
2017-12-22T12:35:26.727Z,92.50
2017-12-22T12:37:54.708Z,93.10
2017-12-22T12:40:22.696Z,93.50
2017-12-22T12:42:51.492Z,93.30
2017-12-22T12:45:19.477Z,93.30
2017-12-22T12:47:47.513Z,93.10
2017-12-22T12:50:15.508Z,92.80
2017-12-22T12:52:43.496Z,92.90
2017-12-22T12:55:11.496Z,93.40
2017-12-22T12:57:39.500Z,93.60
2017-12-22T13:00:08.260Z,93.60
2017-12-22T13:02:36.240Z,93.60
2017-12-22T13:05:04.265Z,93.60
2017-12-22T13:07:32.240Z,93.10
2017-12-22T13:10:00.325Z,93.10
2017-12-22T13:12:28.424Z,93.60
2017-12-22T13:14:57.169Z,93.20
2017-12-22T13:17:25.152Z,93.20
2017-12-22T13:19:53.156Z,93.60
2017-12-22T13:22:21.146Z,93.00
2017-12-22T13:24:49.161Z,92.30
2017-12-22T13:27:17.212Z,92.10
2017-12-22T13:29:45.213Z,92.30
2017-12-22T13:32:13.975Z,93.20
2017-12-22T13:34:41.985Z,93.20
2017-12-22T13:37:09.965Z,93.30
2017-12-22T13:39:37.945Z,93.20
2017-12-22T13:42:05.952Z,92.80
2017-12-22T13:44:34.705Z,93.60
2017-12-22T13:47:02.689Z,93.50
2017-12-22T13:49:30.728Z,93.20
2017-12-22T13:51:58.729Z,93.20
2017-12-22T13:54:26.707Z,93.50
2017-12-22T13:56:54.732Z,93.50
2017-12-22T13:59:22.723Z,93.50
2017-12-22T14:01:50.709Z,93.60
2017-12-22T14:04:18.723Z,93.60
2017-12-22T14:06:46.704Z,93.60
2017-12-22T14:09:14.698Z,93.60
2017-12-22T14:11:42.727Z,94.70
2017-12-22T14:14:10.720Z,93.90
2017-12-22T14:16:38.708Z,93.60
2017-12-22T14:19:06.733Z,93.60
2017-12-22T14:21:34.711Z,93.60
2017-12-22T14:24:02.705Z,93.50
2017-12-22T14:26:30.704Z,92.80
2017-12-22T14:28:58.900Z,93.20
2017-12-22T14:31:26.922Z,93.60
2017-12-22T14:33:55.726Z,93.60
2017-12-22T14:36:24.471Z,93.60
2017-12-22T14:38:52.452Z,93.60
2017-12-22T14:41:20.472Z,93.30
2017-12-22T14:43:49.232Z,93.50
2017-12-22T14:46:17.220Z,93.40
2017-12-22T14:48:45.240Z,93.20
2017-12-22T14:51:13.230Z,92.70
2017-12-22T14:53:41.982Z,93.00
2017-12-22T14:56:10.275Z,93.00
2017-12-22T14:58:38.259Z,92.80
2017-12-22T15:01:06.549Z,92.40
2017-12-22T15:03:34.556Z,92.30
2017-12-22T15:06:02.536Z,92.60
2017-12-22T15:08:30.524Z,93.30
2017-12-22T15:10:58.641Z,93.30
2017-12-22T15:13:26.623Z,93.30
2017-12-22T15:15:54.656Z,93.10
2017-12-22T15:18:22.688Z,93.00
2017-12-22T15:20:50.708Z,93.00
2017-12-22T15:23:18.693Z,93.40
2017-12-22T15:25:46.712Z,93.30
2017-12-22T15:28:14.708Z,93.50
2017-12-22T15:30:43.452Z,93.20
2017-12-22T15:33:11.476Z,93.20
2017-12-22T15:35:39.467Z,93.50
2017-12-22T15:38:08.216Z,93.50
2017-12-22T15:40:36.249Z,93.50
2017-12-22T15:43:04.996Z,93.50
2017-12-22T15:45:32.986Z,93.50
2017-12-22T15:48:01.009Z,94.00
2017-12-22T15:50:29.796Z,93.90
2017-12-22T15:52:57.780Z,94.10
2017-12-22T15:55:25.803Z,94.00
2017-12-22T15:57:53.780Z,94.00
2017-12-22T16:00:21.776Z,93.80
2017-12-22T16:02:49.789Z,93.60
2017-12-22T16:05:17.828Z,93.50
2017-12-22T16:07:45.778Z,93.30
2017-12-22T16:10:13.881Z,93.30
2017-12-22T16:12:42.643Z,93.20
2017-12-22T16:15:10.632Z,93.20
2017-12-22T16:17:38.643Z,93.60
2017-12-22T16:20:07.409Z,93.60
2017-12-22T16:22:35.390Z,93.60
2017-12-22T16:25:03.404Z,93.50
2017-12-22T16:27:31.392Z,93.30
2017-12-22T16:30:00.136Z,93.90
2017-12-22T16:32:28.267Z,93.90
2017-12-22T16:34:56.237Z,93.70
2017-12-22T16:37:24.231Z,93.70
2017-12-22T16:39:52.340Z,93.50
2017-12-22T16:42:21.092Z,93.30
2017-12-22T16:44:49.091Z,93.20
2017-12-22T16:47:17.141Z,93.30
2017-12-22T16:49:45.208Z,93.30
2017-12-22T16:52:13.203Z,93.30
2017-12-22T16:54:41.237Z,93.50
2017-12-22T16:57:09.233Z,93.60
2017-12-22T16:59:37.980Z,93.50
2017-12-22T17:02:06.004Z,93.50
2017-12-22T17:04:33.984Z,93.20
2017-12-22T17:07:01.964Z,93.20
2017-12-22T17:09:29.976Z,93.20
2017-12-22T17:11:57.956Z,93.40
2017-12-22T17:14:25.949Z,93.10
2017-12-22T17:16:54.080Z,93.10
2017-12-22T17:19:22.071Z,93.10
2017-12-22T17:21:50.052Z,93.30
2017-12-22T17:24:18.128Z,93.10
2017-12-22T17:26:46.092Z,93.20
2017-12-22T17:29:14.080Z,93.30
2017-12-22T17:31:42.113Z,93.40
2017-12-22T17:34:10.948Z,93.50
2017-12-22T17:36:39.532Z,93.50
2017-12-22T17:39:07.552Z,93.30
2017-12-22T17:41:35.713Z,93.60
2017-12-22T17:44:03.696Z,93.70
2017-12-22T17:46:31.823Z,93.60
2017-12-22T17:48:59.804Z,93.80
2017-12-22T17:51:27.788Z,93.90
2017-12-22T17:53:55.852Z,93.80
2017-12-22T17:56:23.828Z,93.80
2017-12-22T17:58:51.920Z,93.50
2017-12-22T18:01:19.939Z,93.20
2017-12-22T18:03:48.692Z,93.60
2017-12-22T18:06:16.687Z,93.50
2017-12-22T18:08:44.708Z,93.30
2017-12-22T18:11:13.469Z,92.90
2017-12-22T18:13:41.460Z,92.90
2017-12-22T18:16:09.465Z,92.80
2017-12-22T18:18:38.216Z,92.40
2017-12-22T18:21:06.204Z,92.40
2017-12-22T18:23:34.324Z,92.40
2017-12-22T18:26:02.309Z,92.30
2017-12-22T18:28:30.294Z,92.20
2017-12-22T18:30:59.076Z,92.40
2017-12-22T18:33:27.066Z,92.10
2017-12-22T18:35:55.048Z,92.40
2017-12-22T18:38:23.079Z,92.30
2017-12-22T18:40:51.065Z,92.20
2017-12-22T18:43:19.049Z,92.00
2017-12-22T18:45:47.301Z,91.90
2017-12-22T18:48:16.056Z,91.90
2017-12-22T18:50:44.036Z,91.90
2017-12-22T18:53:12.264Z,92.20
2017-12-22T18:55:41.017Z,92.60
2017-12-22T18:58:09.003Z,92.30
2017-12-22T19:00:37.012Z,92.60
2017-12-22T19:03:04.998Z,92.80
2017-12-22T19:05:32.991Z,93.30
2017-12-22T19:08:01.286Z,93.50
2017-12-22T19:10:29.264Z,93.70
2017-12-22T19:12:58.032Z,93.80
2017-12-22T19:15:26.135Z,93.70
2017-12-22T19:17:54.122Z,94.00
2017-12-22T19:20:23.621Z,94.30
2017-12-22T19:22:51.640Z,94.60
2017-12-22T19:25:20.396Z,94.10
2017-12-22T19:27:48.416Z,94.00
2017-12-22T19:30:17.212Z,94.30
2017-12-22T19:32:45.201Z,94.20
2017-12-22T19:35:13.968Z,94.80
2017-12-22T19:37:42.012Z,94.70
2017-12-22T19:40:10.008Z,94.90
2017-12-22T19:42:38.001Z,94.90
2017-12-22T19:45:06.016Z,95.10
2017-12-22T19:47:35.540Z,94.90
2017-12-22T19:50:03.528Z,94.90
2017-12-22T19:52:31.716Z,95.00
2017-12-22T19:54:59.702Z,95.10
2017-12-22T19:57:28.454Z,95.40
2017-12-22T19:59:56.476Z,95.10
2017-12-22T20:02:24.467Z,95.20
2017-12-22T20:04:52.456Z,95.10
2017-12-22T20:07:21.253Z,94.90
2017-12-22T20:09:49.228Z,94.90
2017-12-22T20:12:17.225Z,94.90
2017-12-22T20:14:46.216Z,95.00
2017-12-22T20:17:14.200Z,95.00
2017-12-22T20:19:42.224Z,94.90
2017-12-22T20:22:10.374Z,94.90
2017-12-22T20:24:39.124Z,95.10
2017-12-22T20:27:07.107Z,95.10
2017-12-22T20:29:35.137Z,95.20
2017-12-22T20:32:03.895Z,95.20
2017-12-22T20:34:31.884Z,95.10
2017-12-22T20:37:00.104Z,95.10
2017-12-22T20:39:28.097Z,94.90
2017-12-22T20:41:56.852Z,95.10
2017-12-22T20:44:24.892Z,95.10
2017-12-22T20:46:54.460Z,95.10
2017-12-22T20:49:22.472Z,95.10
2017-12-22T20:51:50.498Z,95.10
2017-12-22T20:54:18.489Z,95.10
2017-12-22T20:56:46.484Z,95.20
2017-12-22T20:59:14.723Z,95.20
2017-12-22T21:01:44.139Z,95.30
2017-12-22T21:04:12.113Z,95.20
2017-12-22T21:06:40.912Z,95.20
2017-12-22T21:09:09.702Z,95.30
2017-12-22T21:11:37.667Z,95.20
2017-12-22T21:14:05.777Z,95.30
2017-12-22T21:16:33.696Z,95.30
2017-12-22T21:19:01.697Z,95.30
2017-12-22T21:21:29.736Z,95.40
2017-12-22T21:23:58.801Z,95.50
2017-12-22T21:26:26.784Z,95.40
2017-12-22T21:28:54.816Z,95.40
2017-12-22T21:31:23.599Z,95.40
2017-12-22T21:33:52.364Z,95.40
2017-12-22T21:36:20.761Z,95.40
2017-12-22T21:38:48.740Z,95.70
2017-12-22T21:41:16.760Z,95.20
2017-12-22T21:43:45.543Z,95.20
2017-12-22T21:46:13.549Z,95.20
2017-12-22T21:48:42.310Z,95.30
2017-12-22T21:51:10.352Z,95.30
2017-12-22T21:53:38.340Z,95.30
2017-12-22T21:56:06.332Z,95.30
2017-12-22T21:58:34.348Z,95.40
2017-12-22T22:01:02.356Z,95.50
2017-12-22T22:03:31.529Z,95.50
2017-12-22T22:05:59.560Z,95.40
2017-12-22T22:08:28.313Z,95.40
2017-12-22T22:10:56.300Z,95.30
2017-12-22T22:13:24.361Z,95.30
2017-12-22T22:15:52.323Z,95.40
2017-12-22T22:18:20.325Z,95.40
2017-12-22T22:20:48.445Z,95.40
2017-12-22T22:23:16.448Z,95.40
2017-12-22T22:25:44.431Z,95.40
2017-12-22T22:28:13.267Z,95.20
2017-12-22T22:30:41.276Z,95.20
2017-12-22T22:33:09.264Z,95.30
2017-12-22T22:35:37.398Z,95.10
2017-12-22T22:38:06.155Z,95.00
2017-12-22T22:40:34.157Z,95.00
2017-12-22T22:43:02.184Z,94.90
2017-12-22T22:45:30.182Z,94.80
2017-12-22T22:47:58.186Z,94.70
2017-12-22T22:50:26.203Z,94.50
2017-12-22T22:52:54.970Z,94.20
2017-12-22T22:55:22.956Z,94.10
2017-12-22T22:57:51.160Z,94.30
2017-12-22T23:00:19.152Z,94.30
2017-12-22T23:02:47.916Z,94.20
2017-12-22T23:05:16.124Z,94.20
2017-12-22T23:07:44.137Z,94.10
2017-12-22T23:10:12.128Z,94.10
2017-12-22T23:12:40.144Z,94.50
2017-12-22T23:15:08.144Z,94.20
2017-12-22T23:17:36.128Z,94.10
2017-12-22T23:20:04.144Z,94.30
2017-12-22T23:22:32.908Z,94.00
2017-12-22T23:25:00.904Z,94.00
2017-12-22T23:27:28.925Z,94.00
2017-12-22T23:29:56.912Z,94.00
2017-12-22T23:32:24.908Z,94.00
2017-12-22T23:34:53.052Z,94.10
2017-12-22T23:37:21.032Z,94.10
2017-12-22T23:39:49.788Z,94.10
2017-12-22T23:42:17.804Z,94.10
2017-12-22T23:44:45.807Z,94.00
2017-12-22T23:47:14.560Z,94.10
2017-12-22T23:49:42.587Z,94.00
2017-12-22T23:52:12.092Z,93.60
2017-12-22T23:54:40.859Z,93.40
2017-12-22T23:57:09.076Z,93.30
2017-12-22T23:59:37.831Z,93.20
